createdAt,value
2022-11-07T00:00:11.865Z,11.64
2022-11-07T00:01:11.822Z,11.65
2022-11-07T00:02:12.030Z,11.64
2022-11-07T00:03:12.071Z,11.64
2022-11-07T00:04:11.775Z,11.67
2022-11-07T00:05:11.786Z,11.67
2022-11-07T00:06:12.068Z,11.67
2022-11-07T00:07:11.819Z,11.70
2022-11-07T00:08:11.744Z,11.71
2022-11-07T00:09:11.779Z,11.72
2022-11-07T00:10:11.804Z,11.75
2022-11-07T00:11:11.713Z,11.75
2022-11-07T00:12:11.716Z,11.77
2022-11-07T00:13:12.277Z,11.77
2022-11-07T00:14:11.692Z,11.77
2022-11-07T00:15:11.762Z,11.77
2022-11-07T00:16:11.675Z,11.78
2022-11-07T00:17:11.674Z,11.80
2022-11-07T00:18:11.630Z,11.80
2022-11-07T00:19:11.644Z,11.82
2022-11-07T00:20:11.910Z,11.83
2022-11-07T00:21:11.650Z,11.82
2022-11-07T00:22:11.611Z,11.82
2022-11-07T00:23:11.920Z,11.83
2022-11-07T00:24:11.584Z,11.83
2022-11-07T00:25:11.577Z,11.83
2022-11-07T00:26:11.554Z,11.85
2022-11-07T00:27:11.996Z,11.86
2022-11-07T00:28:11.565Z,11.85
2022-11-07T00:29:11.583Z,11.85
2022-11-07T00:30:11.503Z,11.86
2022-11-07T00:31:11.529Z,11.85
2022-11-07T00:32:11.502Z,11.85
2022-11-07T00:33:11.773Z,11.85
2022-11-07T00:34:11.926Z,11.86
2022-11-07T00:35:11.465Z,11.87
2022-11-07T00:36:11.432Z,11.85
2022-11-07T00:37:11.446Z,11.85
2022-11-07T00:38:11.418Z,11.85
2022-11-07T00:39:11.469Z,11.86
2022-11-07T00:40:11.409Z,11.87
2022-11-07T00:41:11.772Z,11.87
2022-11-07T00:42:11.372Z,11.90
2022-11-07T00:43:11.715Z,11.86
2022-11-07T00:44:11.358Z,11.87
2022-11-07T00:45:11.398Z,11.87
2022-11-07T00:46:11.357Z,11.86
2022-11-07T00:47:11.334Z,11.86
2022-11-07T00:48:11.613Z,11.86
2022-11-07T00:49:11.318Z,11.87
2022-11-07T00:50:11.297Z,11.87
2022-11-07T00:51:11.331Z,11.87
2022-11-07T00:52:11.325Z,11.89
2022-11-07T00:53:11.411Z,11.90
2022-11-07T00:54:11.273Z,11.93
2022-11-07T00:55:11.658Z,11.90
2022-11-07T00:56:11.236Z,11.93
2022-11-07T00:57:11.254Z,11.90
2022-11-07T00:58:14.223Z,11.93
2022-11-07T00:59:11.210Z,11.90
2022-11-07T01:00:11.197Z,11.90
2022-11-07T01:01:11.294Z,11.93
2022-11-07T01:02:11.657Z,11.90
2022-11-07T01:03:11.303Z,11.94
2022-11-07T01:04:11.157Z,11.94
2022-11-07T01:05:11.150Z,11.94
2022-11-07T01:06:11.122Z,11.94
2022-11-07T01:07:11.122Z,11.96
2022-11-07T01:08:11.106Z,11.96
2022-11-07T01:09:11.586Z,11.97
2022-11-07T01:10:11.100Z,11.97
2022-11-07T01:11:11.073Z,11.96
2022-11-07T01:12:11.098Z,11.96
2022-11-07T01:13:11.046Z,11.99
2022-11-07T01:14:11.053Z,12.01
2022-11-07T01:15:11.124Z,12.01
2022-11-07T01:16:11.328Z,12.02
2022-11-07T01:17:11.022Z,12.01
2022-11-07T01:18:10.997Z,12.02
2022-11-07T01:19:11.024Z,12.01
2022-11-07T01:20:11.015Z,12.02
2022-11-07T01:21:16.300Z,12.02
2022-11-07T01:22:10.965Z,11.99
2022-11-07T01:23:11.584Z,12.01
2022-11-07T01:24:10.946Z,12.02
2022-11-07T01:25:10.951Z,12.01
2022-11-07T01:26:10.923Z,12.01
2022-11-07T01:27:10.944Z,11.99
2022-11-07T01:28:10.914Z,11.99
2022-11-07T01:29:10.891Z,11.99
2022-11-07T01:30:11.274Z,12.01
2022-11-07T01:31:10.871Z,12.01
2022-11-07T01:32:10.852Z,12.01
2022-11-07T01:33:10.889Z,11.99
2022-11-07T01:34:10.869Z,12.02
2022-11-07T01:35:10.832Z,12.01
2022-11-07T01:36:10.867Z,12.01
2022-11-07T01:37:11.115Z,12.02
2022-11-07T01:38:10.791Z,12.01
2022-11-07T01:39:10.808Z,12.02
2022-11-07T01:40:10.770Z,12.02
2022-11-07T01:41:10.801Z,12.02
2022-11-07T01:42:10.791Z,12.02
2022-11-07T01:43:10.808Z,12.01
2022-11-07T01:44:11.029Z,12.01
2022-11-07T01:45:10.809Z,11.99
2022-11-07T01:46:10.737Z,12.02
2022-11-07T01:47:10.724Z,12.02
2022-11-07T01:48:10.707Z,12.01
2022-11-07T01:49:10.695Z,12.04
2022-11-07T01:50:10.697Z,12.04
2022-11-07T01:51:11.007Z,12.04
2022-11-07T01:52:10.655Z,12.02
2022-11-07T01:53:10.662Z,12.02
2022-11-07T01:54:10.622Z,12.02
2022-11-07T01:55:10.600Z,11.99
2022-11-07T01:56:10.605Z,11.97
2022-11-07T01:57:10.644Z,11.96
2022-11-07T01:58:11.872Z,11.94
2022-11-07T01:59:10.576Z,11.94
2022-11-07T02:00:10.563Z,11.93
2022-11-07T02:01:11.409Z,11.90
2022-11-07T02:02:10.759Z,11.94
2022-11-07T02:03:10.591Z,11.90
2022-11-07T02:04:10.552Z,11.89
2022-11-07T02:05:10.890Z,11.89
2022-11-07T02:06:10.527Z,11.87
2022-11-07T02:07:10.527Z,11.87
2022-11-07T02:08:10.478Z,11.87
2022-11-07T02:09:10.500Z,11.86
2022-11-07T02:10:10.465Z,11.85
2022-11-07T02:11:10.464Z,11.89
2022-11-07T02:12:10.736Z,11.94
2022-11-07T02:13:10.412Z,11.97
2022-11-07T02:14:10.418Z,11.97
2022-11-07T02:15:10.506Z,11.97
2022-11-07T02:16:10.386Z,11.96
2022-11-07T02:17:10.408Z,11.97
2022-11-07T02:18:10.370Z,11.99
2022-11-07T02:19:10.791Z,11.97
2022-11-07T02:20:10.342Z,11.99
2022-11-07T02:21:10.624Z,12.01
2022-11-07T02:22:10.361Z,12.01
2022-11-07T02:23:10.344Z,12.05
2022-11-07T02:24:10.342Z,12.04
2022-11-07T02:25:10.355Z,12.05
2022-11-07T02:26:10.306Z,12.08
2022-11-07T02:27:10.332Z,12.08
2022-11-07T02:28:10.252Z,12.11
2022-11-07T02:29:10.282Z,12.12
2022-11-07T02:30:10.277Z,12.12
2022-11-07T02:31:10.231Z,12.13
2022-11-07T02:32:10.515Z,12.13
2022-11-07T02:33:10.252Z,12.16
2022-11-07T02:34:10.206Z,12.15
2022-11-07T02:35:10.200Z,12.15
2022-11-07T02:36:10.233Z,12.15
2022-11-07T02:37:10.157Z,12.16
2022-11-07T02:38:10.202Z,12.19
2022-11-07T02:39:10.523Z,12.21
2022-11-07T02:40:10.151Z,12.23
2022-11-07T02:41:10.190Z,12.26
2022-11-07T02:42:10.108Z,12.29
2022-11-07T02:43:10.097Z,12.30
2022-11-07T02:44:10.090Z,12.31
2022-11-07T02:45:10.114Z,12.30
2022-11-07T02:46:10.066Z,12.30
2022-11-07T02:47:10.050Z,12.29
2022-11-07T02:48:10.078Z,12.24
2022-11-07T02:49:10.050Z,12.23
2022-11-07T02:50:10.063Z,12.23
2022-11-07T02:51:10.373Z,12.21
2022-11-07T02:52:10.008Z,12.21
2022-11-07T02:53:10.107Z,12.20
2022-11-07T02:54:09.985Z,12.19
2022-11-07T02:55:10.029Z,12.16
2022-11-07T02:56:10.002Z,12.16
2022-11-07T02:57:10.021Z,12.19
2022-11-07T02:58:10.107Z,12.19
2022-11-07T02:59:09.930Z,12.20
2022-11-07T03:00:09.913Z,12.19
2022-11-07T03:01:10.008Z,12.16
2022-11-07T03:02:10.088Z,12.13
2022-11-07T03:03:10.309Z,12.12
2022-11-07T03:04:09.906Z,12.12
2022-11-07T03:05:09.974Z,12.12
2022-11-07T03:06:09.866Z,12.09
2022-11-07T03:07:09.856Z,12.09
2022-11-07T03:08:09.836Z,12.08
2022-11-07T03:09:09.883Z,12.09
2022-11-07T03:10:10.108Z,12.06
2022-11-07T03:11:09.797Z,12.08
2022-11-07T03:12:09.807Z,12.08
2022-11-07T03:13:09.791Z,12.06
2022-11-07T03:14:09.789Z,12.06
2022-11-07T03:15:09.910Z,12.06
2022-11-07T03:16:09.837Z,12.05
2022-11-07T03:17:10.221Z,12.08
2022-11-07T03:18:09.741Z,12.08
2022-11-07T03:19:09.727Z,12.06
2022-11-07T03:20:09.770Z,12.05
2022-11-07T03:21:09.743Z,12.06
2022-11-07T03:22:09.680Z,12.06
2022-11-07T03:23:09.696Z,12.06
2022-11-07T03:24:10.000Z,12.06
2022-11-07T03:25:09.669Z,12.08
2022-11-07T03:26:09.653Z,12.08
2022-11-07T03:27:09.661Z,12.05
2022-11-07T03:28:09.618Z,12.05
2022-11-07T03:29:09.615Z,12.06
2022-11-07T03:30:09.614Z,12.05
2022-11-07T03:31:10.033Z,12.05
2022-11-07T03:32:09.640Z,12.05
2022-11-07T03:33:09.598Z,12.06
2022-11-07T03:34:09.549Z,12.08
2022-11-07T03:35:09.557Z,12.08
2022-11-07T03:36:09.559Z,12.06
2022-11-07T03:37:09.519Z,12.08
2022-11-07T03:38:09.878Z,12.06
2022-11-07T03:39:09.521Z,12.08
2022-11-07T03:40:09.499Z,12.09
2022-11-07T03:41:09.481Z,12.09
2022-11-07T03:42:09.467Z,12.09
2022-11-07T03:43:09.455Z,12.06
2022-11-07T03:44:09.465Z,12.09
2022-11-07T03:45:09.757Z,12.09
2022-11-07T03:46:09.437Z,12.09
2022-11-07T03:47:09.411Z,12.09
2022-11-07T03:48:09.403Z,12.09
2022-11-07T03:49:09.388Z,12.12
2022-11-07T03:50:09.386Z,12.12
2022-11-07T03:51:09.414Z,12.12
2022-11-07T03:52:09.767Z,12.12
2022-11-07T03:53:09.350Z,12.12
2022-11-07T03:54:09.357Z,12.12
2022-11-07T03:55:09.393Z,12.12
2022-11-07T03:56:09.351Z,12.11
2022-11-07T03:57:09.336Z,12.12
2022-11-07T03:58:09.303Z,12.12
2022-11-07T03:59:09.638Z,12.13
2022-11-07T04:00:09.286Z,12.15
2022-11-07T04:01:09.288Z,12.15
2022-11-07T04:02:09.392Z,12.13
2022-11-07T04:03:09.293Z,12.13
2022-11-07T04:04:09.246Z,12.12
2022-11-07T04:05:09.234Z,12.13
2022-11-07T04:06:09.507Z,12.15
2022-11-07T04:07:09.200Z,12.13
2022-11-07T04:08:09.196Z,12.13
2022-11-07T04:09:09.203Z,12.12
2022-11-07T04:10:09.175Z,12.15
2022-11-07T04:11:09.149Z,12.13
2022-11-07T04:12:09.148Z,12.13
2022-11-07T04:13:09.445Z,12.12
2022-11-07T04:14:09.131Z,12.13
2022-11-07T04:15:09.193Z,12.11
2022-11-07T04:16:12.336Z,12.09
2022-11-07T04:17:09.098Z,12.11
2022-11-07T04:18:09.123Z,12.09
2022-11-07T04:19:09.074Z,12.08
2022-11-07T04:20:09.352Z,12.06
2022-11-07T04:21:09.115Z,12.04
2022-11-07T04:22:09.037Z,12.05
2022-11-07T04:23:09.048Z,12.04
2022-11-07T04:24:09.019Z,12.04
2022-11-07T04:25:09.012Z,12.04
2022-11-07T04:26:09.030Z,12.04
2022-11-07T04:27:09.422Z,12.02
2022-11-07T04:28:08.998Z,12.01
2022-11-07T04:29:08.969Z,11.97
2022-11-07T04:30:08.967Z,11.96
2022-11-07T04:31:08.940Z,11.96
2022-11-07T04:32:08.943Z,11.94
2022-11-07T04:33:08.971Z,11.96
2022-11-07T04:34:09.233Z,11.97
2022-11-07T04:35:08.949Z,11.99
2022-11-07T04:36:08.894Z,11.97
2022-11-07T04:37:08.880Z,12.01
2022-11-07T04:38:08.878Z,11.99
2022-11-07T04:39:08.921Z,11.97
2022-11-07T04:40:08.871Z,11.99
2022-11-07T04:41:09.297Z,11.99
2022-11-07T04:42:08.833Z,11.99
2022-11-07T04:43:08.877Z,12.01
2022-11-07T04:44:08.818Z,12.01
2022-11-07T04:45:08.835Z,12.01
2022-11-07T04:46:08.799Z,11.99
2022-11-07T04:47:08.765Z,12.02
2022-11-07T04:48:10.138Z,12.01
2022-11-07T04:49:08.737Z,12.02
2022-11-07T04:50:08.772Z,12.02
2022-11-07T04:51:08.770Z,12.02
2022-11-07T04:52:08.726Z,12.02
2022-11-07T04:53:08.717Z,12.04
2022-11-07T04:54:08.704Z,12.04
2022-11-07T04:55:09.177Z,12.04
2022-11-07T04:56:08.682Z,12.02
2022-11-07T04:57:08.689Z,12.02
2022-11-07T04:58:08.659Z,12.05
2022-11-07T04:59:08.693Z,12.05
2022-11-07T05:00:08.634Z,12.06
2022-11-07T05:01:08.615Z,12.06
2022-11-07T05:02:09.080Z,12.05
2022-11-07T05:03:08.663Z,12.05
2022-11-07T05:04:08.585Z,12.04
2022-11-07T05:05:08.667Z,12.02
2022-11-07T05:06:08.583Z,12.04
2022-11-07T05:07:08.557Z,12.02
2022-11-07T05:08:08.556Z,12.02
2022-11-07T05:09:08.877Z,12.04
2022-11-07T05:10:12.184Z,12.02
2022-11-07T05:11:08.527Z,12.05
2022-11-07T05:12:08.512Z,12.02
2022-11-07T05:13:08.496Z,12.02
2022-11-07T05:14:08.501Z,12.02
2022-11-07T05:15:08.514Z,12.04
2022-11-07T05:16:08.903Z,12.04
2022-11-07T05:17:08.450Z,12.02
2022-11-07T05:18:08.448Z,12.01
2022-11-07T05:19:08.445Z,12.02
2022-11-07T05:20:08.441Z,12.02
2022-11-07T05:21:08.445Z,12.02
2022-11-07T05:22:08.400Z,12.01
2022-11-07T05:23:08.740Z,12.01
2022-11-07T05:24:08.388Z,11.99
2022-11-07T05:25:08.425Z,12.01
2022-11-07T05:26:08.377Z,11.99
2022-11-07T05:27:08.387Z,11.97
2022-11-07T05:28:08.361Z,11.97
2022-11-07T05:29:08.333Z,11.97
2022-11-07T05:30:08.782Z,11.96
2022-11-07T05:31:08.319Z,11.97
2022-11-07T05:32:08.290Z,11.97
2022-11-07T05:33:08.325Z,11.97
2022-11-07T05:34:13.503Z,11.96
2022-11-07T05:35:08.311Z,11.99
2022-11-07T05:36:08.301Z,11.97
2022-11-07T05:37:08.641Z,11.94
2022-11-07T05:38:08.232Z,11.96
2022-11-07T05:39:08.273Z,11.96
2022-11-07T05:40:08.250Z,11.96
2022-11-07T05:41:08.214Z,11.94
2022-11-07T05:42:08.194Z,11.94
2022-11-07T05:43:08.176Z,11.94
2022-11-07T05:44:08.461Z,11.94
2022-11-07T05:45:08.251Z,11.94
2022-11-07T05:46:08.145Z,11.93
2022-11-07T05:47:08.199Z,11.93
2022-11-07T05:48:08.122Z,11.93
2022-11-07T05:49:08.148Z,11.93
2022-11-07T05:50:08.128Z,11.90
2022-11-07T05:51:08.590Z,11.90
2022-11-07T05:52:08.143Z,11.90
2022-11-07T05:53:08.240Z,11.90
2022-11-07T05:54:08.056Z,11.93
2022-11-07T05:55:08.050Z,11.93
2022-11-07T05:56:08.035Z,11.94
2022-11-07T05:57:08.060Z,11.93
2022-11-07T05:58:08.020Z,11.93
2022-11-07T05:59:08.069Z,11.93
2022-11-07T06:00:08.024Z,11.94
2022-11-07T06:01:07.981Z,11.93
2022-11-07T06:02:08.152Z,11.90
2022-11-07T06:03:08.075Z,11.90
2022-11-07T06:04:08.397Z,11.89
2022-11-07T06:05:07.953Z,11.89
2022-11-07T06:06:07.944Z,11.90
2022-11-07T06:07:07.917Z,11.87
2022-11-07T06:08:07.901Z,11.86
2022-11-07T06:09:07.943Z,11.87
2022-11-07T06:10:07.906Z,11.86
2022-11-07T06:11:08.253Z,11.87
2022-11-07T06:12:07.867Z,11.83
2022-11-07T06:13:07.861Z,11.83
2022-11-07T06:14:07.837Z,11.82
2022-11-07T06:15:07.899Z,11.80
2022-11-07T06:16:07.840Z,11.78
2022-11-07T06:17:07.816Z,11.77
2022-11-07T06:18:08.354Z,11.77
2022-11-07T06:19:07.818Z,11.78
2022-11-07T06:20:07.800Z,11.78
2022-11-07T06:21:07.813Z,11.78
2022-11-07T06:22:07.754Z,11.78
2022-11-07T06:23:07.747Z,11.77
2022-11-07T06:24:12.409Z,11.77
2022-11-07T06:25:07.764Z,11.77
2022-11-07T06:26:07.747Z,11.77
2022-11-07T06:27:07.775Z,11.75
2022-11-07T06:28:07.717Z,11.75
2022-11-07T06:29:07.713Z,11.75
2022-11-07T06:30:07.680Z,11.77
2022-11-07T06:31:08.068Z,11.74
2022-11-07T06:32:07.645Z,11.75
2022-11-07T06:33:07.708Z,11.74
2022-11-07T06:34:07.757Z,11.74
2022-11-07T06:35:07.671Z,11.74
2022-11-07T06:36:07.629Z,11.72
2022-11-07T06:37:07.606Z,11.75
2022-11-07T06:38:07.597Z,11.72
2022-11-07T06:39:07.625Z,11.72
2022-11-07T06:40:07.597Z,11.71
2022-11-07T06:41:07.555Z,11.72
2022-11-07T06:42:07.560Z,11.68
2022-11-07T06:43:07.848Z,11.70
2022-11-07T06:44:07.524Z,11.70
2022-11-07T06:45:07.601Z,11.68
2022-11-07T06:46:07.519Z,11.70
2022-11-07T06:47:07.518Z,11.68
2022-11-07T06:48:07.515Z,11.68
2022-11-07T06:49:07.486Z,11.67
2022-11-07T06:50:07.457Z,11.68
2022-11-07T06:51:07.512Z,11.64
2022-11-07T06:52:07.454Z,11.65
2022-11-07T06:53:07.436Z,11.64
2022-11-07T06:54:07.434Z,11.65
2022-11-07T06:55:07.426Z,11.65
2022-11-07T06:56:07.403Z,11.65
2022-11-07T06:57:07.422Z,11.65
2022-11-07T06:58:07.446Z,11.64
2022-11-07T06:59:07.363Z,11.62
2022-11-07T07:00:07.356Z,11.65
2022-11-07T07:01:07.873Z,11.67
2022-11-07T07:02:07.407Z,11.65
2022-11-07T07:03:07.720Z,11.65
2022-11-07T07:04:07.351Z,11.65
2022-11-07T07:05:07.337Z,11.67
2022-11-07T07:06:07.294Z,11.68
2022-11-07T07:07:07.281Z,11.68
2022-11-07T07:08:07.611Z,11.72
2022-11-07T07:09:07.382Z,11.72
2022-11-07T07:10:07.249Z,11.71
2022-11-07T07:11:07.283Z,11.74
2022-11-07T07:12:07.258Z,11.75
2022-11-07T07:13:07.230Z,11.75
2022-11-07T07:14:11.414Z,11.77
2022-11-07T07:15:08.809Z,11.77
2022-11-07T07:16:07.184Z,11.82
2022-11-07T07:17:07.179Z,11.82
2022-11-07T07:18:07.165Z,11.85
2022-11-07T07:19:07.176Z,11.85
2022-11-07T07:20:07.162Z,11.87
2022-11-07T07:21:07.199Z,11.89
2022-11-07T07:22:07.509Z,11.90
2022-11-07T07:23:07.110Z,11.90
2022-11-07T07:24:07.113Z,11.93
2022-11-07T07:25:07.097Z,11.96
2022-11-07T07:26:07.117Z,11.97
2022-11-07T07:27:07.196Z,11.96
2022-11-07T07:28:07.062Z,11.99
2022-11-07T07:29:07.540Z,11.99
2022-11-07T07:30:07.067Z,12.04
2022-11-07T07:31:07.031Z,12.06
2022-11-07T07:32:07.005Z,12.06
2022-11-07T07:33:07.042Z,12.09
2022-11-07T07:34:06.984Z,12.11
2022-11-07T07:35:07.008Z,12.12
2022-11-07T07:36:07.405Z,12.12
2022-11-07T07:37:07.004Z,12.15
2022-11-07T07:38:06.970Z,12.16
2022-11-07T07:39:07.006Z,12.19
2022-11-07T07:40:06.930Z,12.20
2022-11-07T07:41:06.936Z,12.23
2022-11-07T07:42:06.905Z,12.29
2022-11-07T07:43:07.475Z,12.33
2022-11-07T07:44:06.937Z,12.39
2022-11-07T07:45:06.978Z,12.38
2022-11-07T07:46:06.871Z,12.37
2022-11-07T07:47:11.022Z,12.37
2022-11-07T07:48:06.849Z,12.37
2022-11-07T07:49:06.855Z,12.37
2022-11-07T07:50:07.326Z,12.37
2022-11-07T07:51:06.874Z,12.37
2022-11-07T07:52:06.882Z,12.37
2022-11-07T07:53:15.072Z,12.37
2022-11-07T07:54:06.793Z,12.37
2022-11-07T07:55:06.777Z,12.38
2022-11-07T07:56:06.773Z,12.39
2022-11-07T07:57:07.159Z,12.41
2022-11-07T07:58:06.759Z,12.42
2022-11-07T07:59:06.754Z,12.41
2022-11-07T08:00:06.744Z,12.41
2022-11-07T08:01:06.851Z,12.42
2022-11-07T08:02:06.760Z,12.45
2022-11-07T08:03:06.737Z,12.46
2022-11-07T08:04:06.687Z,12.46
2022-11-07T08:05:06.747Z,12.48
2022-11-07T08:06:06.655Z,12.49
2022-11-07T08:07:06.648Z,12.52
2022-11-07T08:08:06.653Z,12.54
2022-11-07T08:09:06.709Z,12.59
2022-11-07T08:10:35.104Z,12.60
2022-11-07T08:11:06.614Z,12.60
2022-11-07T08:12:06.597Z,12.62
2022-11-07T08:13:06.583Z,12.63
2022-11-07T08:14:06.574Z,12.63
2022-11-07T08:15:06.611Z,12.63
2022-11-07T08:16:06.548Z,12.66
2022-11-07T08:17:06.639Z,12.66
2022-11-07T08:18:06.527Z,12.70
2022-11-07T08:19:06.523Z,12.70
2022-11-07T08:20:06.523Z,12.71
2022-11-07T08:21:06.542Z,12.74
2022-11-07T08:22:06.507Z,12.75
2022-11-07T08:23:09.881Z,12.75
2022-11-07T08:24:06.500Z,12.78
2022-11-07T08:25:06.488Z,12.81
2022-11-07T08:26:06.450Z,12.84
2022-11-07T08:27:06.476Z,12.85
2022-11-07T08:28:06.423Z,12.85
2022-11-07T08:29:06.412Z,12.87
2022-11-07T08:30:06.467Z,12.89
2022-11-07T08:31:06.452Z,12.88
2022-11-07T08:32:06.403Z,12.88
2022-11-07T08:33:06.563Z,12.88
2022-11-07T08:34:06.490Z,12.92
2022-11-07T08:35:06.376Z,12.92
2022-11-07T08:36:06.371Z,12.93
2022-11-07T08:37:06.332Z,12.95
2022-11-07T08:38:06.346Z,12.96
2022-11-07T08:39:06.439Z,12.99
2022-11-07T08:40:06.797Z,13.00
2022-11-07T08:41:06.303Z,12.99
2022-11-07T08:42:06.284Z,13.02
2022-11-07T08:43:06.294Z,13.03
2022-11-07T08:44:06.255Z,13.03
2022-11-07T08:45:06.312Z,13.04
2022-11-07T08:46:06.272Z,13.07
2022-11-07T08:47:08.585Z,13.07
2022-11-07T08:48:06.202Z,13.09
2022-11-07T08:49:06.238Z,13.12
2022-11-07T08:50:06.261Z,13.12
2022-11-07T08:51:06.250Z,13.15
2022-11-07T08:52:06.210Z,13.20
2022-11-07T08:53:06.201Z,13.24
2022-11-07T08:54:06.154Z,13.29
2022-11-07T08:55:06.152Z,13.32
2022-11-07T08:56:06.151Z,13.36
2022-11-07T08:57:06.183Z,13.37
2022-11-07T08:58:06.135Z,13.37
2022-11-07T08:59:06.112Z,13.37
2022-11-07T09:00:06.565Z,13.37
2022-11-07T09:01:06.135Z,13.33
2022-11-07T09:04:06.178Z,13.38
2022-11-07T09:05:06.088Z,13.38
2022-11-07T09:06:06.068Z,13.41
2022-11-07T09:07:06.045Z,13.41
2022-11-07T09:08:06.109Z,13.43
2022-11-07T09:09:06.060Z,13.46
2022-11-07T09:10:06.040Z,13.47
2022-11-07T09:11:05.987Z,13.46
2022-11-07T09:12:06.511Z,13.47
2022-11-07T09:13:06.018Z,13.47
2022-11-07T09:14:05.993Z,13.47
2022-11-07T09:15:06.018Z,13.49
2022-11-07T09:16:05.943Z,13.47
2022-11-07T09:17:05.917Z,13.49
2022-11-07T09:18:05.911Z,13.49
2022-11-07T09:19:05.981Z,13.49
2022-11-07T09:20:05.888Z,13.52
2022-11-07T09:21:05.948Z,13.54
2022-11-07T09:22:05.872Z,13.56
2022-11-07T09:23:05.902Z,13.58
2022-11-07T09:24:05.833Z,13.58
2022-11-07T09:25:05.954Z,13.61
2022-11-07T09:26:05.812Z,13.61
2022-11-07T09:27:05.898Z,13.62
2022-11-07T09:28:05.829Z,13.63
2022-11-07T09:29:05.891Z,13.63
2022-11-07T09:30:06.350Z,13.65
2022-11-07T09:31:05.786Z,13.65
2022-11-07T09:32:23.652Z,13.67
2022-11-07T09:33:05.795Z,13.70
2022-11-07T09:34:05.775Z,13.74
2022-11-07T09:35:05.736Z,13.74
2022-11-07T09:36:05.739Z,13.80
2022-11-07T09:37:05.754Z,13.83
2022-11-07T09:38:05.799Z,13.83
2022-11-07T09:39:05.754Z,13.83
2022-11-07T09:40:05.815Z,13.87
2022-11-07T09:41:05.654Z,13.89
2022-11-07T09:42:05.697Z,13.95
2022-11-07T09:43:05.978Z,13.96
2022-11-07T09:44:05.632Z,13.99
2022-11-07T09:45:05.659Z,14.01
2022-11-07T09:46:05.633Z,14.01
2022-11-07T09:47:05.615Z,14.02
2022-11-07T09:48:05.598Z,14.06
2022-11-07T09:49:05.581Z,14.06
2022-11-07T09:50:06.092Z,14.06
2022-11-07T09:51:05.603Z,14.07
2022-11-07T09:52:05.592Z,14.07
2022-11-07T09:53:05.539Z,14.09
2022-11-07T09:54:05.529Z,14.12
2022-11-07T09:55:05.650Z,14.10
2022-11-07T09:56:05.538Z,14.13
2022-11-07T09:57:05.564Z,14.16
2022-11-07T09:58:05.482Z,14.21
2022-11-07T09:59:09.681Z,14.27
2022-11-07T10:00:05.488Z,14.31
2022-11-07T10:01:05.517Z,14.31
2022-11-07T10:02:05.510Z,14.29
2022-11-07T10:03:05.550Z,14.32
2022-11-07T10:04:24.120Z,14.32
2022-11-07T10:05:05.545Z,14.37
2022-11-07T10:06:05.405Z,14.39
2022-11-07T10:07:05.378Z,14.44
2022-11-07T10:08:05.399Z,14.46
2022-11-07T10:09:05.830Z,14.50
2022-11-07T10:10:05.359Z,14.50
2022-11-07T10:11:05.902Z,14.52
2022-11-07T10:12:05.363Z,14.56
2022-11-07T10:13:05.351Z,14.57
2022-11-07T10:14:05.359Z,14.57
2022-11-07T10:15:05.437Z,14.60
2022-11-07T10:16:05.382Z,14.62
2022-11-07T10:17:05.279Z,14.62
2022-11-07T10:18:05.294Z,14.62
2022-11-07T10:19:05.286Z,14.67
2022-11-07T10:20:05.306Z,14.68
2022-11-07T10:21:35.921Z,14.68
2022-11-07T10:22:05.255Z,14.69
2022-11-07T10:23:05.399Z,14.75
2022-11-07T10:24:05.359Z,14.83
2022-11-07T10:25:05.470Z,14.75
2022-11-07T10:26:05.230Z,14.81
2022-11-07T10:27:05.214Z,14.83
2022-11-07T10:28:05.235Z,14.87
2022-11-07T10:29:05.286Z,14.88
2022-11-07T10:30:05.228Z,15.01
2022-11-07T10:31:05.163Z,15.11
2022-11-07T10:32:05.150Z,15.13
2022-11-07T10:33:05.197Z,15.15
2022-11-07T10:34:05.576Z,15.05
2022-11-07T10:35:05.151Z,15.05
2022-11-07T10:36:05.240Z,15.02
2022-11-07T10:37:05.108Z,15.05
2022-11-07T10:38:05.087Z,15.06
2022-11-07T10:39:05.123Z,15.02
2022-11-07T10:40:10.976Z,15.03
2022-11-07T10:41:05.080Z,15.08
2022-11-07T10:42:05.045Z,15.13
2022-11-07T10:43:05.016Z,15.11
2022-11-07T10:44:05.044Z,15.09
2022-11-07T10:45:05.287Z,15.09
2022-11-07T10:46:05.093Z,15.08
2022-11-07T10:47:05.478Z,15.05
2022-11-07T10:48:04.976Z,15.05
2022-11-07T10:49:05.005Z,15.20
2022-11-07T10:50:04.998Z,15.28
2022-11-07T10:51:05.719Z,15.57
2022-11-07T10:52:04.937Z,15.59
2022-11-07T10:53:04.893Z,15.49
2022-11-07T10:54:04.935Z,15.48
2022-11-07T10:55:04.900Z,15.43
2022-11-07T10:56:04.881Z,15.41
2022-11-07T10:57:04.909Z,15.72
2022-11-07T10:58:04.882Z,15.89
2022-11-07T10:59:04.857Z,15.88
2022-11-07T11:00:04.872Z,15.78
2022-11-07T11:01:04.966Z,15.66
2022-11-07T11:02:04.934Z,15.52
2022-11-07T11:03:04.915Z,15.31
2022-11-07T11:04:04.794Z,15.19
2022-11-07T11:05:04.783Z,15.11
2022-11-07T11:06:05.092Z,15.05
2022-11-07T11:07:04.765Z,14.99
2022-11-07T11:08:04.805Z,14.98
2022-11-07T11:09:04.831Z,14.94
2022-11-07T11:10:04.770Z,14.93
2022-11-07T11:11:04.729Z,14.88
2022-11-07T11:12:04.750Z,14.83
2022-11-07T11:13:04.698Z,14.80
2022-11-07T11:14:05.525Z,14.78
2022-11-07T11:15:04.861Z,14.78
2022-11-07T11:16:05.929Z,14.78
2022-11-07T11:17:04.704Z,14.75
2022-11-07T11:18:04.733Z,14.78
2022-11-07T11:19:04.646Z,14.81
2022-11-07T11:20:04.624Z,14.81
2022-11-07T11:21:04.808Z,14.78
2022-11-07T11:22:09.452Z,14.78
2022-11-07T11:23:04.604Z,14.78
2022-11-07T11:24:05.041Z,14.78
2022-11-07T11:25:04.671Z,14.81
2022-11-07T11:26:04.554Z,14.86
2022-11-07T11:27:04.623Z,14.83
2022-11-07T11:28:04.575Z,14.81
2022-11-07T11:29:04.520Z,14.80
2022-11-07T11:30:04.660Z,14.74
2022-11-07T11:31:04.522Z,14.72
2022-11-07T11:32:04.522Z,14.72
2022-11-07T11:33:04.541Z,14.74
2022-11-07T11:34:04.493Z,14.75
2022-11-07T11:35:04.465Z,14.72
2022-11-07T11:36:04.443Z,14.62
2022-11-07T11:37:05.410Z,14.47
2022-11-07T11:38:05.379Z,14.38
2022-11-07T11:39:05.344Z,14.20
2022-11-07T11:40:04.963Z,14.10
2022-11-07T11:41:10.577Z,14.01
2022-11-07T11:42:04.420Z,13.89
2022-11-07T11:43:04.459Z,13.79
2022-11-07T11:44:04.661Z,13.76
2022-11-07T11:45:04.529Z,13.71
2022-11-07T11:46:04.356Z,13.73
2022-11-07T11:47:04.382Z,13.71
2022-11-07T11:48:04.382Z,13.70
2022-11-07T11:49:04.307Z,13.69
2022-11-07T11:50:04.551Z,13.65
2022-11-07T11:51:04.653Z,13.63
2022-11-07T11:52:04.285Z,13.59
2022-11-07T11:53:04.269Z,13.58
2022-11-07T11:54:04.260Z,13.59
2022-11-07T11:55:04.359Z,13.59
2022-11-07T11:56:04.227Z,13.54
2022-11-07T11:57:05.191Z,13.51
2022-11-07T11:58:04.699Z,13.49
2022-11-07T11:59:04.697Z,13.52
2022-11-07T12:00:04.378Z,13.56
2022-11-07T12:01:04.210Z,13.65
2022-11-07T12:02:04.330Z,13.73
2022-11-07T12:03:05.098Z,13.76
2022-11-07T12:04:07.923Z,13.70
2022-11-07T12:05:04.227Z,13.73
2022-11-07T12:06:04.414Z,13.79
2022-11-07T12:07:04.199Z,13.83
2022-11-07T12:08:04.133Z,13.89
2022-11-07T12:09:04.524Z,13.92
2022-11-07T12:10:04.085Z,13.92
2022-11-07T12:11:04.109Z,13.95
2022-11-07T12:12:04.088Z,13.99
2022-11-07T12:13:04.424Z,14.01
2022-11-07T12:14:04.080Z,13.96
2022-11-07T12:15:04.073Z,13.92
2022-11-07T12:16:04.048Z,13.89
2022-11-07T12:17:04.032Z,13.89
2022-11-07T12:18:04.067Z,13.92
2022-11-07T12:19:04.077Z,13.87
2022-11-07T12:20:04.005Z,13.83
2022-11-07T12:21:04.204Z,13.83
2022-11-07T12:22:04.001Z,13.83
2022-11-07T12:23:04.022Z,13.81
2022-11-07T12:24:03.948Z,13.87
2022-11-07T12:25:03.945Z,13.89
2022-11-07T12:26:04.234Z,13.91
2022-11-07T12:27:03.955Z,13.92
2022-11-07T12:28:03.918Z,13.95
2022-11-07T12:29:03.880Z,13.95
2022-11-07T12:30:03.890Z,14.01
2022-11-07T12:31:03.876Z,13.96
2022-11-07T12:32:03.860Z,13.96
2022-11-07T12:33:03.971Z,13.96
2022-11-07T12:34:03.886Z,13.98
2022-11-07T12:35:03.862Z,13.99
2022-11-07T12:36:03.825Z,13.99
2022-11-07T12:37:03.850Z,14.01
2022-11-07T12:38:03.804Z,14.01
2022-11-07T12:39:03.861Z,14.06
2022-11-07T12:40:03.827Z,14.06
2022-11-07T12:41:03.824Z,14.09
2022-11-07T12:42:03.752Z,14.07
2022-11-07T12:43:03.790Z,14.02
2022-11-07T12:44:03.741Z,14.01
2022-11-07T12:45:03.743Z,14.02
2022-11-07T12:46:03.731Z,14.02
2022-11-07T12:47:03.730Z,14.02
2022-11-07T12:48:07.383Z,14.02
2022-11-07T12:49:03.728Z,14.04
2022-11-07T12:50:03.681Z,14.01
2022-11-07T12:51:03.998Z,14.02
2022-11-07T12:52:03.646Z,13.99
2022-11-07T12:53:03.635Z,13.99
2022-11-07T12:54:03.645Z,13.99